Hauptseite
METAR-TAF:

METAR-TAF

Flughäfen :

Flughafen Treviso

Treviso, Italien

Breite: 45-39N, Länge: 012-11E, Höhe: 18 m

Beobachtung

Neuester Wetterbericht von vor 27 Minuten, um 04:50 UTC
Wind 4 kt aus Nordost, variierte zwischen Nord und Ost/Nordost
Temperatur 18°C
Luftfeuchtigkeit 77%
Luftdruck 1018 hPa
Sichtweite 10 km oder mehr

METAR: LIPH 230450Z AUTO 05004KT 010V070 9999 OVC018/// 18/14 Q1018

Zeit: 07:17 (05:17 UTC)

Prognose

Neuester Wetterbericht von vor 6 Stunden und 17 Minuten, um 23:00 UTC
Gültige Prognose vom 23 um 00 UTC bis 23 um 24 UTC
Wind 5 kt aus unterschiedlichen Richtungen
Sichtweite 10 km oder mehr
Aufgelockert bewölkt in der Höhe von 3000 ft
Zeitweise
vom 23 um 01 UTC bis 23 um 06 UTC
Sichtweite: 2000 m
feuchter Dunst

TAF: LIPH 222300Z 2300/2324 VRB05KT 9999 SCT030 TEMPO 2301/2306 2000 BR

Wetterbeobachtungen und Prognosen von mehr als 4000 Flughäfen (METAR und TAF Bericht).

Die verfügbaren Stationen werden durch gelbe und rote Markierungen auf der Karte dargestellt.

Führen Sie die Maus auf sie, um den Namen der Station zu sehen.

Darauf klicken, um die Beobachtung von Wetterbeobachtungen und Prognosen zu sehen.

Um die Karte zu ändern : klicken Sie auf den grünen Tasten mit einem schwarzen Kreuz Zum Vergrößern, auf den grünen Button mit einem Gedankenstrich zu verkleinern, oder auf die grünen Pfeile für benachbarte Karten.


METAR-TAF: